• Join FlightAware (Why Join?)
  • Login
  • US Flag 
Rudolph Flight #1: Arrived! 
10:43AM EST


 

Airport Tracker/Info


-or-


 

Live Flight TrackerFlight Track Log ✈ ASQ6115 ✈ 10-Jun-2013 ✈ KIAH - KMFE

Flight Track Log - Related Links

Times and Time Zones

All times are in EDT time to prevent confusion due to time zone crossing. See the ASQ6115 flight status page for this flight to view local times or setup timezone preferences in your user account.

Time Position Orientation Groundspeed Altitude Reporting Facility
EDT Latitude Longitude Course Direction KTS MPH feet Rate Location/Type
02:54PM 29.9572 -95.3392 190° South 181 208 700  Level Houston Center
02:55PM 29.9233 -95.2903 129° Southeast 232 267 1,900 1,500 Climbing Houston Center
02:56PM 29.8717 -95.2617 154° Southeast 258 297 3,500 2,220 Climbing Houston Center
02:57PM 29.7981 -95.3006 205° Southwest 263 303 6,300 2,400 Climbing Houston Center
02:58PM 29.5076 -95.4285 190° South  Level FlightAware Approximate
02:58PM 29.7281 -95.3381 205° Southwest 272 313 8,400  Level Houston Center
02:59PM 29.4125 -95.4475 190° South  Level FlightAware Approximate
02:59PM 29.6494 -95.3575 192° South 283 326 10,300  Level Houston Center
03:00PM 29.5658 -95.3792 193° South 308 354 11,000 540 Climbing Houston Center
03:01PM 29.4717 -95.4031 192° South 342 394 11,500 1,320 Climbing Houston Center
03:02PM 29.3756 -95.4361 197° South 359 413 13,800 2,340 Climbing Houston Center
03:03PM 29.2933 -95.5083 217° Southwest 314 361 16,400 1,620 Climbing Houston Center
03:04PM 29.2228 -95.5775 221° Southwest 331 381 17,200 720 Climbing Houston Center
03:05PM 29.1458 -95.6517 220° Southwest 358 412 17,900 660 Climbing Houston Center
03:06PM 29.0625 -95.7272 218° Southwest 379 436 18,600 720 Climbing Houston Center
03:07PM 28.9764 -95.8050 218° Southwest 392 451 19,500 840 Climbing Houston Center
03:08PM 28.8883 -95.8833 218° Southwest 401 461 20,400 840 Climbing Houston Center
03:09PM 28.7914 -95.9697 218° Southwest 406 467 21,300 840 Climbing Houston Center
03:10PM 28.7031 -96.0503 219° Southwest 407 468 22,200 900 Climbing Houston Center
03:11PM 28.5936 -96.1469 218° Southwest 412 474 23,200 900 Climbing Houston Center
03:12PM 28.5031 -96.2275 218° Southwest 412 474 24,100 900 Climbing Houston Center
03:13PM 28.4119 -96.3083 218° Southwest 413 475 25,100 960 Climbing Houston Center
03:14PM 28.3219 -96.3889 218° Southwest 412 474 26,100 900 Climbing Houston Center
03:15PM 28.2325 -96.4661 217° Southwest 406 467 27,000 900 Climbing Houston Center
03:16PM 28.1442 -96.5444 218° Southwest 402 463 28,000 900 Climbing Houston Center
03:17PM 28.0572 -96.6219 218° Southwest 398 458 28,900 960 Climbing Houston Center
03:19PM 27.9539 -96.7131 218° Southwest 393 452 30,100 1,020 Climbing Houston Center
03:20PM 27.8678 -96.7881 218° Southwest 391 450 31,100 960 Climbing Houston Center
03:21PM 27.7822 -96.8625 218° Southwest 389 448 32,100 900 Climbing Houston Center
03:22PM 27.6961 -96.9356 217° Southwest 387 445 33,000 840 Climbing Houston Center
03:23PM 27.6203 -97.0203 225° Southwest 385 443 33,900 480 Climbing Houston Center
03:24PM 27.5397 -97.1275 230° Southwest 389 448 34,000  Climbing Houston Center
03:25PM 27.4642 -97.2256 229° Southwest 405 466 34,000 -60 Level Houston Center
03:26PM 27.3875 -97.3275 230° Southwest 420 483 33,900 -1,140 Descending Houston Center
03:27PM 27.3097 -97.4272 229° Southwest 424 488 31,700 -2,520 Descending Houston Center
03:28PM 27.2350 -97.5311 231° Southwest 428 493 28,700 -3,480 Descending Houston Center
03:29PM 27.1436 -97.6550 230° Southwest 428 493 24,600 -3,480 Descending Houston Center
03:30PM 27.0703 -97.7583 231° Southwest 404 465 21,600 -2,640 Descending Houston Center
03:31PM 27.0231 -97.8208 230° Southwest 417 480 20,200 -1,980 Descending Houston Center
03:31PM 26.9956 -97.8619 233° Southwest 422 486 19,600 -1,560 Descending Houston Center
03:32PM 26.9261 -97.9792 236° Southwest 421 484 18,000 -1,500 Descending Houston Center
03:33PM 26.8633 -98.0683 232° Southwest 408 470 16,500 -1,380 Descending Houston Center
03:33PM 26.8194 -98.1036 216° Southwest 404 465 16,100 -1,680 Descending Houston Center
03:34PM 26.7586 -98.1431 210° Southwest 379 436 14,800 -2,280 Descending Houston Center
03:34PM 26.7167 -98.1661 206° Southwest 363 418 13,600 -2,340 Descending Houston Center
03:35PM 26.6681 -98.1889 203° Southwest 363 418 12,400 -1,920 Descending Houston Center
03:36PM 26.5731 -98.2372 204° Southwest 352 405 10,500 -1,500 Descending Houston Center
03:37PM 26.4994 -98.2783 207° Southwest 308 354 9,300 -1,920 Descending Houston Center
03:38PM 26.4294 -98.3183 207° Southwest 270 311 6,600 -2,520 Descending Houston Center
03:39PM 26.3672 -98.3556 208° Southwest 258 297 4,200 -2,160 Descending Houston Center
03:40PM 26.2989 -98.3531 178° South 244 281 2,200 -1,140 Descending Houston Center
03:41PM 26.2456 -98.3064 142° Southeast 180 207 1,700 -420 Descending Houston Center